createdAt,value
2023-03-26T00:00:56.610Z,100062.19
2023-03-26T00:03:24.156Z,100064.53
2023-03-26T00:06:03.278Z,100067.56
2023-03-26T00:08:30.935Z,100069.66
2023-03-26T00:11:00.024Z,100076.06
2023-03-26T00:13:28.538Z,100074.13
2023-03-26T00:15:57.344Z,100068.84
2023-03-26T00:18:30.147Z,100073.22
2023-03-26T00:20:57.852Z,100069.44
2023-03-26T00:23:25.683Z,100073.84
2023-03-26T00:25:53.579Z,100079.16
2023-03-26T00:28:21.563Z,100066.25
2023-03-26T00:30:49.534Z,100067.56
2023-03-26T00:33:18.699Z,100072.50
2023-03-26T00:35:47.097Z,100065.81
2023-03-26T00:38:15.209Z,100060.94
2023-03-26T00:40:44.061Z,100074.28
2023-03-26T00:43:19.073Z,100064.44
2023-03-26T00:45:47.920Z,100067.50
2023-03-26T00:48:15.558Z,100074.91
2023-03-26T00:50:46.477Z,100078.81
2023-03-26T00:53:14.823Z,100067.06
2023-03-26T00:55:42.902Z,100065.22
2023-03-26T00:58:10.705Z,100063.69
2023-03-26T01:00:40.635Z,100066.28
2023-03-26T01:03:08.264Z,100057.78
2023-03-26T01:05:46.554Z,100061.91
2023-03-26T01:08:19.223Z,100062.34
2023-03-26T01:10:50.684Z,100066.38
2023-03-26T01:13:19.420Z,100057.53
2023-03-26T01:15:50.886Z,100054.78
2023-03-26T01:18:20.240Z,100047.03
2023-03-26T01:20:50.961Z,100051.03
2023-03-26T01:23:21.892Z,100043.59
2023-03-26T01:25:56.080Z,100039.38
2023-03-26T01:28:23.944Z,100034.59
2023-03-26T01:30:58.484Z,100039.06
2023-03-26T01:33:30.077Z,100043.28
2023-03-26T01:36:00.257Z,100041.44
2023-03-26T01:38:30.591Z,100029.66
2023-03-26T01:41:01.982Z,100034.06
2023-03-26T01:43:33.127Z,100027.00
2023-03-26T01:46:03.514Z,100028.28
2023-03-26T01:48:33.180Z,100022.91
2023-03-26T01:51:00.634Z,100018.75
2023-03-26T01:53:28.484Z,100015.56
2023-03-26T01:56:03.813Z,100021.84
2023-03-26T01:58:36.113Z,100018.84
2023-03-26T02:01:12.617Z,100011.59
2023-03-26T02:03:45.410Z,100002.97
2023-03-26T02:06:18.072Z,100001.44
2023-03-26T02:08:50.172Z,99998.97
2023-03-26T02:11:19.967Z,99992.41
2023-03-26T02:13:47.914Z,99983.41
2023-03-26T02:16:17.500Z,99970.97
2023-03-26T02:18:45.884Z,99975.38
2023-03-26T02:21:15.369Z,99969.16
2023-03-26T02:23:46.917Z,99970.44
2023-03-26T02:26:16.942Z,99957.09
2023-03-26T02:28:45.954Z,99960.28
2023-03-26T02:31:13.725Z,99959.91
2023-03-26T02:33:41.236Z,99955.16
2023-03-26T02:36:10.688Z,99941.84
2023-03-26T02:38:38.328Z,99944.31
2023-03-26T02:41:06.519Z,99947.41
2023-03-26T02:43:34.116Z,99943.28
2023-03-26T02:46:03.000Z,99939.66
2023-03-26T02:48:31.294Z,99944.31
2023-03-26T02:50:58.991Z,99945.66
2023-03-26T02:53:29.698Z,99942.25
2023-03-26T02:55:57.588Z,99937.97
2023-03-26T02:58:26.235Z,99936.97
2023-03-26T03:00:56.037Z,99934.06
2023-03-26T03:03:26.089Z,99944.09
2023-03-26T03:05:54.705Z,99935.56
2023-03-26T03:08:23.665Z,99934.22
2023-03-26T03:10:58.763Z,99930.50
2023-03-26T03:13:26.373Z,99931.31
2023-03-26T03:15:54.234Z,99922.47
2023-03-26T03:18:22.197Z,99918.00
2023-03-26T03:20:51.436Z,99918.47
2023-03-26T03:23:18.904Z,99911.06
2023-03-26T03:25:46.494Z,99904.00
2023-03-26T03:28:14.040Z,99897.63
2023-03-26T03:30:42.794Z,99896.78
2023-03-26T03:33:10.397Z,99891.56
2023-03-26T03:35:38.280Z,99900.34
2023-03-26T03:38:07.266Z,99888.75
2023-03-26T03:40:34.813Z,99885.91
2023-03-26T03:43:02.297Z,99880.59
2023-03-26T03:45:29.801Z,99872.09
2023-03-26T03:47:57.496Z,99865.97
2023-03-26T03:50:25.212Z,99861.81
2023-03-26T03:52:52.980Z,99866.00
2023-03-26T03:55:24.007Z,99855.56
2023-03-26T03:57:52.379Z,99853.00
2023-03-26T04:00:20.379Z,99852.09
2023-03-26T04:02:48.162Z,99856.06
2023-03-26T04:05:15.685Z,99851.97
2023-03-26T04:07:43.834Z,99848.41
2023-03-26T04:10:16.344Z,99848.28
2023-03-26T04:12:45.583Z,99847.41
2023-03-26T04:15:13.091Z,99838.44
2023-03-26T04:17:42.642Z,99840.34
2023-03-26T04:20:15.526Z,99841.66
2023-03-26T04:22:43.743Z,99829.06
2023-03-26T04:25:11.933Z,99831.72
2023-03-26T04:27:41.642Z,99822.84
2023-03-26T04:30:15.344Z,99830.44
2023-03-26T04:32:42.978Z,99818.19
2023-03-26T04:35:12.922Z,99813.41
2023-03-26T04:37:41.910Z,99800.75
2023-03-26T04:40:14.229Z,99804.44
2023-03-26T04:42:46.214Z,99794.66
2023-03-26T04:45:16.465Z,99786.91
2023-03-26T04:47:46.539Z,99780.44
2023-03-26T04:50:14.437Z,99771.69
2023-03-26T04:52:45.157Z,99781.22
2023-03-26T04:55:20.994Z,99779.31
2023-03-26T04:57:51.499Z,99788.09
2023-03-26T05:00:21.358Z,99786.16
2023-03-26T05:02:50.369Z,99770.56
2023-03-26T05:05:18.368Z,99763.63
2023-03-26T05:07:45.855Z,99758.31
2023-03-26T05:10:14.767Z,99753.38
2023-03-26T05:12:42.535Z,99727.84
2023-03-26T05:15:11.701Z,99727.47
2023-03-26T05:17:41.554Z,99704.00
2023-03-26T05:20:16.884Z,99708.06
2023-03-26T05:22:44.371Z,99717.94
2023-03-26T05:25:11.928Z,99718.19
2023-03-26T05:27:39.716Z,99708.09
2023-03-26T05:30:09.810Z,99701.78
2023-03-26T05:32:38.099Z,99688.00
2023-03-26T05:35:08.519Z,99681.72
2023-03-26T05:37:37.606Z,99674.13
2023-03-26T05:40:11.389Z,99672.41
2023-03-26T05:42:39.222Z,99670.16
2023-03-26T05:45:08.021Z,99665.19
2023-03-26T05:47:35.706Z,99659.94
2023-03-26T05:50:03.260Z,99656.28
2023-03-26T05:52:32.090Z,99659.19
2023-03-26T05:54:59.542Z,99674.09
2023-03-26T05:57:30.124Z,99671.91
2023-03-26T05:59:57.636Z,99660.19
2023-03-26T06:02:25.145Z,99654.38
2023-03-26T06:04:52.787Z,99648.72
2023-03-26T06:07:20.947Z,99643.53
2023-03-26T06:09:49.899Z,99637.88
2023-03-26T06:12:17.368Z,99638.34
2023-03-26T06:14:45.717Z,99632.25
2023-03-26T06:17:13.225Z,99626.72
2023-03-26T06:19:40.762Z,99618.31
2023-03-26T06:22:08.260Z,99608.34
2023-03-26T06:24:35.736Z,99609.44
2023-03-26T06:27:04.672Z,99605.91
2023-03-26T06:29:32.151Z,99603.03
2023-03-26T06:32:09.069Z,99596.59
2023-03-26T06:34:40.292Z,99590.75
2023-03-26T06:37:07.745Z,99590.22
2023-03-26T06:39:35.236Z,99584.59
2023-03-26T06:42:04.390Z,99586.94
2023-03-26T06:44:31.885Z,99589.53
2023-03-26T06:46:59.431Z,99584.22
2023-03-26T06:49:26.952Z,99581.16
2023-03-26T06:51:54.672Z,99575.34
2023-03-26T06:54:22.149Z,99580.56
2023-03-26T06:56:49.727Z,99581.22
2023-03-26T06:59:18.553Z,99573.50
2023-03-26T07:01:46.858Z,99580.63
2023-03-26T07:04:14.434Z,99587.09
2023-03-26T07:06:41.915Z,99583.16
2023-03-26T07:09:09.735Z,99580.59
2023-03-26T07:11:37.210Z,99571.19
2023-03-26T07:14:04.793Z,99570.50
2023-03-26T07:16:33.609Z,99571.84
2023-03-26T07:19:01.101Z,99562.88
2023-03-26T07:21:29.038Z,99571.28
2023-03-26T07:23:57.208Z,99567.25
2023-03-26T07:26:27.838Z,99566.03
2023-03-26T07:29:04.969Z,99560.28
2023-03-26T07:31:42.394Z,99555.72
2023-03-26T07:34:18.446Z,99547.69
2023-03-26T07:36:51.043Z,99546.44
2023-03-26T07:39:31.185Z,99539.13
2023-03-26T07:42:02.473Z,99531.78
2023-03-26T07:44:39.280Z,99519.22
2023-03-26T07:47:25.457Z,99505.78
2023-03-26T07:49:54.994Z,99508.78
2023-03-26T07:52:23.136Z,99503.88
2023-03-26T07:54:51.339Z,99505.31
2023-03-26T07:57:24.739Z,99501.63
2023-03-26T07:59:53.745Z,99494.84
2023-03-26T08:02:39.346Z,99486.31
2023-03-26T08:05:19.787Z,99481.78
2023-03-26T08:08:02.766Z,99468.56
2023-03-26T08:10:38.000Z,99478.78
2023-03-26T08:13:16.401Z,99487.28
2023-03-26T08:15:48.174Z,99491.03
2023-03-26T08:18:27.198Z,99480.88
2023-03-26T08:20:58.388Z,99476.50
2023-03-26T08:23:30.667Z,99476.00
2023-03-26T08:26:02.572Z,99478.88
2023-03-26T08:28:44.501Z,99474.03
2023-03-26T08:31:13.956Z,99467.78
2023-03-26T08:33:43.524Z,99483.84
2023-03-26T08:36:11.454Z,99483.25
2023-03-26T08:38:38.927Z,99477.75
2023-03-26T08:41:51.436Z,99472.28
2023-03-26T08:44:49.901Z,99480.22
2023-03-26T08:47:40.907Z,99476.88
2023-03-26T08:50:51.778Z,99479.53
2023-03-26T08:54:07.617Z,99474.28
2023-03-26T08:56:41.156Z,99456.97
2023-03-26T08:59:43.201Z,99440.22
2023-03-26T09:02:41.584Z,99449.97
2023-03-26T09:05:47.133Z,99438.97
2023-03-26T09:08:33.958Z,99434.91
2023-03-26T09:11:17.851Z,99436.81
2023-03-26T09:13:59.677Z,99437.78
2023-03-26T09:16:57.106Z,99434.91
2023-03-26T09:19:47.972Z,99443.66
2023-03-26T09:22:47.279Z,99440.66
2023-03-26T09:25:54.577Z,99437.16
2023-03-26T09:28:52.726Z,99426.31
2023-03-26T09:31:41.804Z,99422.41
2023-03-26T09:34:26.224Z,99411.22
2023-03-26T09:36:58.108Z,99403.09
2023-03-26T09:39:37.434Z,99409.38
2023-03-26T09:42:12.682Z,99405.84
2023-03-26T09:44:51.103Z,99406.63
2023-03-26T09:47:51.426Z,99395.72
2023-03-26T09:50:47.107Z,99394.91
2023-03-26T09:53:29.198Z,99401.91
2023-03-26T09:56:10.397Z,99389.06
2023-03-26T09:58:57.881Z,99394.75
2023-03-26T10:01:32.111Z,99389.22
2023-03-26T10:04:12.093Z,99395.31
2023-03-26T10:06:49.766Z,99389.41
2023-03-26T10:09:24.685Z,99392.91
2023-03-26T10:12:05.200Z,99386.19
2023-03-26T10:14:36.111Z,99379.00
2023-03-26T10:17:10.595Z,99375.94
2023-03-26T10:19:54.893Z,99370.84
2023-03-26T10:22:31.130Z,99369.06
2023-03-26T10:25:14.112Z,99360.84
2023-03-26T10:27:49.503Z,99350.38
2023-03-26T10:30:41.839Z,99342.97
2023-03-26T10:33:15.757Z,99346.97
2023-03-26T10:35:52.415Z,99334.91
2023-03-26T10:38:26.216Z,99336.09
2023-03-26T10:41:00.351Z,99335.66
2023-03-26T10:43:52.086Z,99337.59
2023-03-26T10:47:14.480Z,99331.53
2023-03-26T10:50:06.470Z,99329.09
2023-03-26T10:52:38.918Z,99334.09
2023-03-26T10:55:12.564Z,99331.66
2023-03-26T10:57:43.566Z,99325.38
2023-03-26T11:00:23.255Z,99321.63
2023-03-26T11:03:03.246Z,99315.34
2023-03-26T11:05:46.283Z,99319.81
2023-03-26T11:08:16.332Z,99308.41
2023-03-26T11:10:51.210Z,99304.69
2023-03-26T11:13:24.517Z,99302.69
2023-03-26T11:15:57.498Z,99303.00
2023-03-26T11:18:29.916Z,99303.22
2023-03-26T11:21:18.633Z,99299.19
2023-03-26T11:24:04.778Z,99294.66
2023-03-26T11:26:39.524Z,99304.91
2023-03-26T11:29:42.919Z,99315.19
2023-03-26T11:32:13.660Z,99312.84
2023-03-26T11:34:43.577Z,99312.81
2023-03-26T11:37:17.993Z,99310.69
2023-03-26T11:39:50.366Z,99316.22
2023-03-26T11:42:19.213Z,99309.94
2023-03-26T11:44:49.459Z,99309.19
2023-03-26T11:47:23.155Z,99298.72
2023-03-26T11:49:52.333Z,99302.16
2023-03-26T11:52:19.886Z,99304.28
2023-03-26T11:54:48.385Z,99292.00
2023-03-26T11:57:20.686Z,99281.31
2023-03-26T11:59:57.622Z,99285.31
2023-03-26T12:02:32.406Z,99287.59
2023-03-26T12:05:15.962Z,99287.78
2023-03-26T12:07:47.788Z,99284.19
2023-03-26T12:10:25.530Z,99280.25
2023-03-26T12:12:55.400Z,99278.44
2023-03-26T12:15:23.220Z,99272.28
2023-03-26T12:17:55.955Z,99276.03
2023-03-26T12:20:38.518Z,99274.22
2023-03-26T12:23:08.111Z,99275.97
2023-03-26T12:25:37.375Z,99268.47
2023-03-26T12:28:13.069Z,99265.03
2023-03-26T12:30:42.268Z,99260.38
2023-03-26T12:33:18.161Z,99256.19
2023-03-26T12:35:45.818Z,99244.59
2023-03-26T12:38:24.167Z,99247.34
2023-03-26T12:41:05.388Z,99247.84
2023-03-26T12:44:46.610Z,99244.56
2023-03-26T12:47:56.895Z,99245.19
2023-03-26T12:49:19.102Z,99242.66
2023-03-26T12:51:49.871Z,99227.50
2023-03-26T12:54:25.399Z,99221.03
2023-03-26T12:57:11.964Z,99224.25
2023-03-26T12:59:50.341Z,99217.59
2023-03-26T13:02:32.282Z,99225.75
2023-03-26T13:05:17.626Z,99220.09
2023-03-26T13:08:02.587Z,99215.66
2023-03-26T13:10:37.328Z,99223.50
2023-03-26T13:13:16.884Z,99220.97
2023-03-26T13:15:46.971Z,99228.91
2023-03-26T13:18:24.011Z,99217.75
2023-03-26T13:20:57.850Z,99212.09
2023-03-26T13:23:34.349Z,99203.81
2023-03-26T13:26:10.001Z,99211.28
2023-03-26T13:28:42.488Z,99200.97
2023-03-26T13:31:17.650Z,99198.47
2023-03-26T13:33:51.373Z,99190.19
2023-03-26T13:36:24.971Z,99199.66
2023-03-26T13:39:04.952Z,99209.16
2023-03-26T13:41:41.770Z,99189.16
2023-03-26T13:44:15.392Z,99181.63
2023-03-26T13:46:46.228Z,99170.97
2023-03-26T13:49:16.451Z,99172.00
2023-03-26T13:51:50.274Z,99198.91
2023-03-26T13:54:22.637Z,99206.69
2023-03-26T13:56:53.290Z,99199.91
2023-03-26T13:59:23.946Z,99194.59
2023-03-26T14:01:55.504Z,99191.16
2023-03-26T14:04:26.743Z,99191.19
2023-03-26T14:06:59.517Z,99186.69
2023-03-26T14:09:31.618Z,99180.25
2023-03-26T14:12:21.118Z,99183.50
2023-03-26T14:14:52.571Z,99171.19
2023-03-26T14:17:23.410Z,99180.28
2023-03-26T14:20:24.490Z,99179.56
2023-03-26T14:23:03.035Z,99171.91
2023-03-26T14:25:39.067Z,99184.06
2023-03-26T14:28:17.156Z,99191.44
2023-03-26T14:31:03.813Z,99173.28
2023-03-26T14:33:54.114Z,99181.09
2023-03-26T14:36:30.518Z,99178.66
2023-03-26T14:39:25.629Z,99173.88
2023-03-26T14:41:54.232Z,99159.94
2023-03-26T14:44:56.295Z,99175.53
2023-03-26T14:47:25.496Z,99149.94
2023-03-26T14:50:35.720Z,99153.09
2023-03-26T14:53:07.117Z,99153.91
2023-03-26T14:55:56.546Z,99143.13
2023-03-26T14:58:55.678Z,99136.50
2023-03-26T15:01:26.599Z,99134.28
2023-03-26T15:04:38.326Z,99138.53
2023-03-26T15:07:23.323Z,99134.78
2023-03-26T15:10:19.491Z,99132.34
2023-03-26T15:13:03.394Z,99126.25
2023-03-26T15:15:44.576Z,99122.88
2023-03-26T15:19:09.435Z,99110.91
2023-03-26T15:22:28.779Z,99111.63
2023-03-26T15:25:23.074Z,99126.03
2023-03-26T15:27:58.396Z,99119.41
2023-03-26T15:31:06.988Z,99125.78
2023-03-26T15:33:57.846Z,99129.84
2023-03-26T15:36:47.717Z,99139.09
2023-03-26T15:39:59.326Z,99150.56
2023-03-26T15:42:32.504Z,99171.34
2023-03-26T15:45:14.996Z,99171.50
2023-03-26T15:48:11.027Z,99188.69
2023-03-26T15:50:50.758Z,99214.03
2023-03-26T15:53:36.411Z,99246.38
2023-03-26T15:56:25.884Z,99275.22
2023-03-26T15:58:59.316Z,99280.63
2023-03-26T16:01:46.159Z,99280.22
2023-03-26T16:04:30.534Z,99275.97
2023-03-26T16:07:03.638Z,99280.22
2023-03-26T16:09:42.750Z,99269.16
2023-03-26T16:12:30.434Z,99255.50
2023-03-26T16:15:32.017Z,99261.81
2023-03-26T16:18:32.913Z,99263.44
2023-03-26T16:21:30.669Z,99261.34
2023-03-26T16:24:20.112Z,99268.00
2023-03-26T16:26:59.203Z,99259.69
2023-03-26T16:29:30.050Z,99267.91
2023-03-26T16:32:01.530Z,99277.38
2023-03-26T16:34:40.231Z,99281.47
2023-03-26T16:37:38.392Z,99288.38
2023-03-26T16:40:33.512Z,99280.00
2023-03-26T16:43:27.815Z,99295.28
2023-03-26T16:46:00.198Z,99284.69
2023-03-26T16:48:33.925Z,99281.44
2023-03-26T16:51:09.302Z,99285.56
2023-03-26T16:53:42.614Z,99287.56
2023-03-26T16:56:16.815Z,99291.22
2023-03-26T16:58:54.874Z,99279.00
2023-03-26T17:01:30.232Z,99282.69
2023-03-26T17:04:01.537Z,99278.38
2023-03-26T17:07:01.484Z,99280.25
2023-03-26T17:09:38.887Z,99281.84
2023-03-26T17:12:14.106Z,99274.94
2023-03-26T17:14:54.810Z,99286.13
2023-03-26T17:17:46.017Z,99289.22
2023-03-26T17:20:22.463Z,99286.78
2023-03-26T17:22:57.498Z,99285.53
2023-03-26T17:25:32.376Z,99291.44
2023-03-26T17:28:12.658Z,99293.09
2023-03-26T17:30:54.571Z,99298.19
2023-03-26T17:33:29.474Z,99306.16
2023-03-26T17:36:16.027Z,99297.78
2023-03-26T17:39:19.540Z,99296.16
2023-03-26T17:42:13.387Z,99294.91
2023-03-26T17:44:44.070Z,99292.47
2023-03-26T17:47:20.885Z,99295.13
2023-03-26T17:49:50.955Z,99293.47
2023-03-26T17:52:22.203Z,99292.03
2023-03-26T17:54:53.170Z,99301.00
2023-03-26T17:57:22.910Z,99308.31
2023-03-26T17:59:53.508Z,99311.63
2023-03-26T18:02:23.832Z,99322.06
2023-03-26T18:04:53.699Z,99327.38
2023-03-26T18:07:46.436Z,99330.66
2023-03-26T18:10:28.718Z,99332.84
2023-03-26T18:13:17.028Z,99340.81
2023-03-26T18:15:51.149Z,99336.78
2023-03-26T18:18:21.425Z,99340.63
2023-03-26T18:20:50.513Z,99342.47
2023-03-26T18:23:24.233Z,99343.94
2023-03-26T18:25:58.060Z,99347.16
2023-03-26T18:28:35.795Z,99354.06
2023-03-26T18:31:13.636Z,99345.72
2023-03-26T18:33:46.097Z,99355.84
2023-03-26T18:36:14.971Z,99355.28
2023-03-26T18:38:43.203Z,99363.47
2023-03-26T18:41:18.336Z,99361.06
2023-03-26T18:43:45.866Z,99365.50
2023-03-26T18:46:14.019Z,99355.72
2023-03-26T18:49:00.047Z,99358.16
2023-03-26T18:51:29.505Z,99361.47
2023-03-26T18:54:00.307Z,99358.00
2023-03-26T18:56:31.751Z,99361.16
2023-03-26T18:59:00.847Z,99359.06
2023-03-26T19:01:31.398Z,99356.16
2023-03-26T19:04:02.085Z,99361.66
2023-03-26T19:06:30.101Z,99365.00
2023-03-26T19:08:58.693Z,99361.31
2023-03-26T19:11:27.146Z,99364.56
2023-03-26T19:14:07.694Z,99356.75
2023-03-26T19:16:37.156Z,99368.16
2023-03-26T19:19:06.702Z,99368.19
2023-03-26T19:21:35.655Z,99363.91
2023-03-26T19:24:03.658Z,99366.91
2023-03-26T19:26:31.421Z,99372.91
2023-03-26T19:29:00.651Z,99375.19
2023-03-26T19:31:35.178Z,99372.34
2023-03-26T19:34:04.855Z,99370.44
2023-03-26T19:36:34.579Z,99375.09
2023-03-26T19:39:12.731Z,99372.19
2023-03-26T19:41:42.352Z,99375.94
2023-03-26T19:44:19.447Z,99374.78
2023-03-26T19:46:53.841Z,99367.59
2023-03-26T19:49:30.819Z,99376.22
2023-03-26T19:52:10.840Z,99377.38
2023-03-26T19:54:59.950Z,99379.66
2023-03-26T19:57:31.818Z,99377.19
2023-03-26T19:59:59.681Z,99380.06
2023-03-26T20:02:28.888Z,99380.78
2023-03-26T20:04:56.553Z,99392.06
2023-03-26T20:07:35.502Z,99377.09
2023-03-26T20:10:05.448Z,99387.78
2023-03-26T20:12:33.270Z,99394.94
2023-03-26T20:15:01.572Z,99392.25
2023-03-26T20:17:34.676Z,99406.28
2023-03-26T20:20:02.289Z,99413.63
2023-03-26T20:22:29.728Z,99419.19
2023-03-26T20:24:57.282Z,99406.53
2023-03-26T20:27:24.725Z,99421.59
2023-03-26T20:29:52.178Z,99420.91
2023-03-26T20:32:26.491Z,99418.94
2023-03-26T20:34:57.596Z,99428.47
2023-03-26T20:37:25.054Z,99425.88
2023-03-26T20:39:52.584Z,99433.66
2023-03-26T20:42:20.014Z,99433.06
2023-03-26T20:44:50.610Z,99438.56
2023-03-26T20:47:18.042Z,99447.16
2023-03-26T20:49:45.872Z,99452.06
2023-03-26T20:52:15.323Z,99464.09
2023-03-26T20:54:42.778Z,99461.84
2023-03-26T20:57:13.167Z,99473.81
2023-03-26T20:59:41.848Z,99475.66
2023-03-26T21:02:11.879Z,99482.19
2023-03-26T21:04:39.726Z,99485.38
2023-03-26T21:07:17.694Z,99495.34
2023-03-26T21:09:48.650Z,99495.34
2023-03-26T21:12:20.481Z,99510.66
2023-03-26T21:14:48.876Z,99510.63
2023-03-26T21:17:18.358Z,99518.31
2023-03-26T21:19:47.098Z,99524.59
2023-03-26T21:22:25.682Z,99534.59
2023-03-26T21:25:02.456Z,99529.03
2023-03-26T21:27:34.782Z,99546.63
2023-03-26T21:30:02.762Z,99543.56
2023-03-26T21:32:31.582Z,99553.72
2023-03-26T21:34:59.752Z,99556.72
2023-03-26T21:37:28.039Z,99563.13
2023-03-26T21:39:57.575Z,99561.41
2023-03-26T21:42:26.888Z,99572.03
2023-03-26T21:44:54.942Z,99579.78
2023-03-26T21:47:23.009Z,99576.28
2023-03-26T21:49:52.285Z,99578.88
2023-03-26T21:52:22.501Z,99589.66
2023-03-26T21:54:50.860Z,99588.66
2023-03-26T21:57:34.130Z,99606.19
2023-03-26T22:00:14.978Z,99602.09
2023-03-26T22:02:51.787Z,99614.72
2023-03-26T22:05:20.853Z,99618.56
2023-03-26T22:07:53.861Z,99626.41
2023-03-26T22:10:21.810Z,99626.34
2023-03-26T22:12:51.043Z,99632.84
2023-03-26T22:15:19.162Z,99643.16
2023-03-26T22:17:53.605Z,99656.22
2023-03-26T22:20:24.398Z,99660.28
2023-03-26T22:22:53.293Z,99662.19
2023-03-26T22:25:21.640Z,99663.78
2023-03-26T22:27:51.712Z,99671.41
2023-03-26T22:30:20.540Z,99688.13
2023-03-26T22:32:48.463Z,99675.06
2023-03-26T22:35:16.490Z,99694.59
2023-03-26T22:37:43.993Z,99694.34
2023-03-26T22:40:13.368Z,99703.03
2023-03-26T22:42:40.971Z,99711.16
2023-03-26T22:45:11.186Z,99724.75
2023-03-26T22:47:38.796Z,99728.78
2023-03-26T22:50:07.948Z,99735.78
2023-03-26T22:52:36.267Z,99738.91
2023-03-26T22:55:04.727Z,99748.41
2023-03-26T22:57:32.215Z,99760.63
2023-03-26T23:00:08.121Z,99775.25
2023-03-26T23:02:37.000Z,99775.59
2023-03-26T23:05:04.637Z,99778.31
2023-03-26T23:07:32.452Z,99779.81
2023-03-26T23:09:59.911Z,99793.75
2023-03-26T23:12:27.462Z,99791.47
2023-03-26T23:14:55.265Z,99810.91
2023-03-26T23:17:23.830Z,99807.78
2023-03-26T23:19:53.029Z,99812.88
2023-03-26T23:22:21.394Z,99823.38
2023-03-26T23:24:48.952Z,99825.38
2023-03-26T23:27:16.406Z,99824.72
2023-03-26T23:29:50.129Z,99836.84
2023-03-26T23:32:24.072Z,99847.28
2023-03-26T23:34:55.746Z,99862.34
2023-03-26T23:37:23.747Z,99867.34
2023-03-26T23:39:51.470Z,99873.34
2023-03-26T23:42:28.838Z,99867.78
2023-03-26T23:44:57.558Z,99888.41
2023-03-26T23:47:25.442Z,99886.78
2023-03-26T23:49:54.284Z,99896.19
2023-03-26T23:52:21.739Z,99903.00
2023-03-26T23:54:49.297Z,99913.44
2023-03-26T23:57:18.393Z,99917.09
2023-03-26T23:59:45.942Z,99926.53
